Aeroporto :
LOGIN :

Iscrizione | Disclaimer

   EN    FR    IT 

 










Sommario :    VFR   VFR Marginale   IFR   IFR Intensivo   IFR Molto Intensivo
Visibilità : 
Base nubi : 
>= 8 km
>= 3000ft
5 / 8 km
1000 / 3000 ft
1500m / 5 km
500 / 1000 ft
800 / 1500m
200 / 500 ft
< 800m
< 200 ft
Simboli :   Temporali  Nebbia  Neve Forte  Precipitazioni Forti  Vento > 20 kt
SIGMETs :   Varie  Temporali  Ghiacco  Turbolenza  Onda orograficha  Ceneri Vulcaniche






- Altitudine del aeroporto : 187 ft


ETNW - Wunstorf AB

ULTIMO METAR :
  • 070020Z AUTO 27006KT 6000 // ////// 12/06 Q1026 ///

METARs OBSOLETI :
  • 062320Z AUTO 27006KT 6000 // ////// 12/05 Q1025 ///
  • 062220Z AUTO 31007KT 6000 // ////// 14/04 Q1024 ///

TAF TAF ETNW
Valido dal 06 a 23 ore il 07 a 23 ore UTC


062210Z 0623/0723 24008KT 9999 NSW SCT090
BECMG 0701/0702 28006KT 9000 NSW SCT010 BKN090
TEMPO 0702/0708 32005KT 4000 BR BKN010 BKN090
PROB30 0704/0708 VRB03KT 2000 BR BKN005 BKN010
BECMG 0709/0711 02006KT 9999 NSW FEW030 CANCEL BY ETGL



MetMap, La meteo Aeronautica in un colpo d'occhio ! - Copyright ORBIFLY Dicembre 2007 - Disclaimer

ORBIFLY MET'MAP TEAM :

Programmazione e sviluppo : Alexandra Zaïnal
Concezione : Baudouin d'Aumeries
Aiuto per la programmazione : Marc-Olivier Méhu
Supporto tecnico e logistico : Manuel Goepfert
Aiuto per la traduzione : Arnaldo La Scala

Contatto : metmap@orbifly.com




FONTI E CREDITI :

   NOAA